Time;durP1;ratioP1;P1;durP2;ratioP2;P2;SDS_P1;SDS_P2;PMS_P1;PMS_P2;Temp;Humidity;BMP_temperature;BMP_pressure;BME280_temperature;BME280_humidity;BME280_pressure;Samples;Min_cycle;Max_cycle;Signal;HPM_P1;HPM_P2
2022/07/18 00:02:08;;;;;;;1.00;0.90;;;19.70;99.90;;;;;;5039179;28;20254;-96
2022/07/18 00:04:41;;;;;;;0.97;0.87;;;19.60;99.90;;;;;;5038415;28;20213;-96
2022/07/18 00:07:16;;;;;;;2.50;0.83;;;19.60;99.90;;;;;;5041020;28;20547;-96
2022/07/18 00:09:48;;;;;;;1.10;0.90;;;19.60;99.90;;;;;;5021418;28;20231;-96
2022/07/18 00:12:19;;;;;;;1.07;0.97;;;19.40;99.90;;;;;;5037738;28;20255;-96
2022/07/18 00:14:50;;;;;;;3.00;1.30;;;19.40;99.90;;;;;;5039284;28;20229;-96
2022/07/18 00:17:25;;;;;;;1.37;0.73;;;19.60;99.90;;;;;;5041486;28;20213;-96
2022/07/18 00:19:58;;;;;;;2.00;1.00;;;19.50;99.90;;;;;;5020769;28;20208;-96
2022/07/18 00:22:32;;;;;;;1.77;1.00;;;19.50;99.90;;;;;;5040964;28;20205;-96
2022/07/18 00:25:05;;;;;;;0.90;0.80;;;19.50;99.90;;;;;;5040852;28;20263;-96
2022/07/18 00:27:38;;;;;;;2.30;0.87;;;19.60;99.90;;;;;;5038841;28;20276;-96
2022/07/18 00:30:10;;;;;;;1.87;0.90;;;19.80;99.90;;;;;;5039527;28;20213;-96
2022/07/18 00:32:43;;;;;;;2.27;0.90;;;19.80;99.90;;;;;;5038120;28;20259;-96
2022/07/18 00:35:15;;;;;;;1.40;1.10;;;20.00;99.90;;;;;;5039744;28;20244;-96
2022/07/18 00:37:50;;;;;;;0.90;0.77;;;20.00;99.90;;;;;;5039177;28;20263;-96
2022/07/18 00:43:08;;;;;;;0.70;0.70;;;20.20;99.90;;;;;;5042650;28;20239;-96
2022/07/18 00:45:41;;;;;;;1.60;0.80;;;20.20;99.90;;;;;;5040907;28;20213;-96
2022/07/18 00:48:14;;;;;;;1.37;1.00;;;20.40;99.90;;;;;;5041402;28;20213;-96
2022/07/18 00:50:47;;;;;;;2.27;1.00;;;20.60;99.90;;;;;;5042460;28;20597;-96
2022/07/18 00:53:23;;;;;;;1.00;0.90;;;20.60;99.90;;;;;;5040493;28;20299;-96
2022/07/18 00:55:55;;;;;;;0.90;0.90;;;20.60;99.90;;;;;;5040710;28;20692;-96
2022/07/18 00:58:30;;;;;;;2.57;1.50;;;20.60;99.90;;;;;;5042561;28;20208;-96
2022/07/18 01:03:51;;;;;;;1.00;0.90;;;20.30;99.90;;;;;;5040734;28;20258;-96
2022/07/18 01:06:23;;;;;;;1.50;0.80;;;20.20;99.90;;;;;;5024474;28;20219;-96
2022/07/18 01:08:59;;;;;;;2.33;1.10;;;20.30;99.90;;;;;;5041316;28;20626;-96
2022/07/18 01:11:30;;;;;;;4.67;0.90;;;20.30;99.90;;;;;;5040798;28;20224;-96
2022/07/18 01:14:04;;;;;;;3.13;0.97;;;20.30;99.90;;;;;;5042590;28;20247;-96
2022/07/18 01:16:45;;;;;;;1.03;0.83;;;20.40;99.90;;;;;;5042589;28;20212;-96
2022/07/18 01:19:16;;;;;;;1.80;0.80;;;20.40;99.90;;;;;;5042012;28;20240;-96
2022/07/18 01:21:50;;;;;;;1.47;1.00;;;20.40;99.90;;;;;;5039989;28;20209;-96
2022/07/18 01:24:23;;;;;;;2.00;0.90;;;20.40;99.90;;;;;;5042522;28;20583;-96
2022/07/18 01:26:56;;;;;;;1.13;0.70;;;20.40;99.90;;;;;;5042133;28;20219;-96
2022/07/18 01:29:28;;;;;;;1.70;0.70;;;20.40;99.90;;;;;;5042392;28;20216;-96
2022/07/18 01:32:06;;;;;;;0.77;0.70;;;20.30;99.90;;;;;;5043994;28;20213;-96
2022/07/18 01:34:38;;;;;;;1.97;1.00;;;20.20;99.90;;;;;;5043217;28;20257;-96
2022/07/18 01:37:12;;;;;;;1.00;1.00;;;20.20;99.90;;;;;;5054454;28;20193;-96
2022/07/18 01:39:45;;;;;;;2.20;1.03;;;20.20;99.90;;;;;;5058727;28;20239;-95
2022/07/18 01:42:18;;;;;;;1.00;0.73;;;20.30;99.90;;;;;;5043648;28;20288;-96
2022/07/18 01:44:50;;;;;;;1.00;0.83;;;20.20;99.90;;;;;;5034474;28;20213;-96
2022/07/18 01:47:21;;;;;;;1.10;0.70;;;20.10;99.90;;;;;;5030196;28;20213;-96
2022/07/18 01:49:53;;;;;;;0.90;0.77;;;20.00;99.90;;;;;;5032780;28;20209;-95
2022/07/18 01:52:27;;;;;;;0.73;0.70;;;20.10;99.90;;;;;;5012108;28;20205;-96
2022/07/18 01:54:58;;;;;;;1.30;0.87;;;20.20;99.90;;;;;;5023808;28;20246;-95
2022/07/18 01:57:31;;;;;;;2.37;1.40;;;20.40;99.90;;;;;;5029703;28;20205;-96
2022/07/18 02:00:03;;;;;;;2.73;1.07;;;20.60;99.90;;;;;;5037804;28;20185;-96
2022/07/18 02:02:34;;;;;;;1.57;1.00;;;20.60;99.90;;;;;;5037531;28;20269;-96
2022/07/18 02:05:07;;;;;;;1.27;1.10;;;20.60;99.90;;;;;;5037586;28;20217;-96
2022/07/18 02:07:43;;;;;;;1.10;1.00;;;20.50;99.90;;;;;;5038329;28;20206;-96
2022/07/18 02:10:16;;;;;;;1.10;0.90;;;20.30;99.90;;;;;;5038007;28;20193;-96
2022/07/18 02:12:49;;;;;;;1.53;1.00;;;20.20;99.90;;;;;;5056757;28;20213;-96
2022/07/18 02:15:20;;;;;;;1.63;1.03;;;20.00;99.90;;;;;;5058019;28;20229;-96
2022/07/18 02:20:38;;;;;;;1.40;1.10;;;19.80;99.90;;;;;;5754227;22;20222;-96
2022/07/18 02:23:12;;;;;;;2.30;1.43;;;19.60;99.90;;;;;;5057250;28;20232;-96
2022/07/18 02:25:45;;;;;;;1.20;1.10;;;19.60;99.90;;;;;;5047489;28;20654;-96
2022/07/18 02:28:17;;;;;;;1.53;1.03;;;19.50;99.90;;;;;;5026268;28;20247;-96
2022/07/18 02:30:49;;;;;;;1.70;1.20;;;19.40;99.90;;;;;;5041314;28;20589;-96
2022/07/18 02:33:21;;;;;;;1.20;1.10;;;19.30;99.90;;;;;;5041744;28;20295;-95
2022/07/18 02:35:54;;;;;;;1.97;1.30;;;19.20;99.90;;;;;;5041073;28;20240;-96
2022/07/18 02:38:29;;;;;;;4.83;1.23;;;19.20;99.90;;;;;;5040755;28;20217;-96
2022/07/18 02:41:00;;;;;;;5.70;1.20;;;19.20;99.90;;;;;;5042534;28;20275;-96
2022/07/18 02:43:32;;;;;;;1.27;1.17;;;19.10;99.90;;;;;;5039608;28;20271;-96
2022/07/18 02:46:04;;;;;;;2.80;1.13;;;19.00;99.90;;;;;;5039829;28;20215;-96
2022/07/18 02:48:38;;;;;;;2.60;1.10;;;19.00;99.90;;;;;;5042473;28;20216;-96
2022/07/18 02:51:10;;;;;;;2.20;1.33;;;19.00;99.90;;;;;;5041471;28;20224;-96
2022/07/18 02:53:45;;;;;;;1.97;1.27;;;19.00;99.90;;;;;;5042589;28;20201;-96
2022/07/18 02:56:16;;;;;;;1.90;1.10;;;18.90;99.90;;;;;;5039585;28;20716;-96
2022/07/18 02:58:48;;;;;;;2.90;1.30;;;18.80;99.90;;;;;;5040048;28;20208;-96
2022/07/18 03:01:21;;;;;;;1.53;1.00;;;18.70;99.90;;;;;;5038936;28;20208;-96
2022/07/18 03:03:57;;;;;;;2.83;1.20;;;18.60;99.90;;;;;;5040204;28;20208;-96
2022/07/18 03:06:30;;;;;;;2.70;1.20;;;18.50;99.90;;;;;;5039201;28;20224;-96
2022/07/18 03:09:05;;;;;;;3.10;1.20;;;18.40;99.90;;;;;;5037898;28;20284;-96
2022/07/18 03:11:37;;;;;;;2.27;1.33;;;18.30;99.90;;;;;;4689372;28;9999935;-96
2022/07/18 03:14:09;;;;;;;2.60;1.33;;;18.30;99.90;;;;;;5038743;28;20220;-96
2022/07/18 03:16:41;;;;;;;3.43;1.30;;;18.20;99.90;;;;;;5040413;28;20705;-96
2022/07/18 03:19:26;;;;;;;1.63;1.53;;;18.10;99.90;;;;;;5040343;28;20217;-96
2022/07/18 03:21:58;;;;;;;2.93;1.63;;;18.10;99.90;;;;;;5039588;28;20281;-96
2022/07/18 03:24:31;;;;;;;2.47;1.30;;;18.10;99.90;;;;;;5040804;28;20209;-96
2022/07/18 03:27:04;;;;;;;2.03;1.40;;;18.00;99.90;;;;;;5041060;28;20197;-96
2022/07/18 03:29:38;;;;;;;2.20;1.30;;;18.00;99.90;;;;;;5040210;28;20254;-96
2022/07/18 03:32:09;;;;;;;1.63;1.37;;;18.00;99.90;;;;;;5039407;28;20228;-96
2022/07/18 03:34:40;;;;;;;2.33;1.47;;;17.90;99.90;;;;;;5040576;28;20217;-96
2022/07/18 03:39:59;;;;;;;2.13;1.43;;;17.80;99.90;;;;;;5042053;28;20208;-96
2022/07/18 03:42:30;;;;;;;2.97;1.30;;;17.70;99.90;;;;;;5044320;28;20220;-96
2022/07/18 03:45:07;;;;;;;2.20;1.70;;;17.60;99.90;;;;;;5055820;28;20208;-95
2022/07/18 03:47:39;;;;;;;2.37;1.33;;;17.60;99.90;;;;;;5055895;28;20229;-96
2022/07/18 03:50:12;;;;;;;3.03;1.70;;;17.60;99.90;;;;;;5038293;28;20208;-95
2022/07/18 03:52:43;;;;;;;3.20;1.50;;;17.60;99.90;;;;;;5056265;28;20197;-96
2022/07/18 03:55:17;;;;;;;2.07;1.50;;;17.60;99.90;;;;;;5056340;28;20236;-96
2022/07/18 03:57:52;;;;;;;1.67;1.40;;;17.50;99.90;;;;;;5056859;28;20199;-96
2022/07/18 04:00:25;;;;;;;3.50;1.40;;;17.50;99.90;;;;;;5056043;28;20209;-96
2022/07/18 04:02:57;;;;;;;4.33;1.50;;;17.50;99.90;;;;;;5055964;28;20212;-96
2022/07/18 04:05:34;;;;;;;1.73;1.63;;;17.40;99.90;;;;;;5056056;28;20202;-96
2022/07/18 04:08:06;;;;;;;2.57;1.80;;;17.30;99.90;;;;;;5055901;28;20209;-96
2022/07/18 04:10:41;;;;;;;3.23;1.60;;;17.30;99.90;;;;;;5052938;28;20201;-96
2022/07/18 04:13:13;;;;;;;3.30;1.80;;;17.30;99.90;;;;;;5034022;28;20239;-96
2022/07/18 04:15:45;;;;;;;2.60;1.50;;;17.20;99.90;;;;;;5050079;28;20201;-96
2022/07/18 04:18:21;;;;;;;2.20;1.53;;;17.20;99.90;;;;;;5047629;28;20262;-96
2022/07/18 04:20:59;;;;;;;2.73;1.70;;;17.20;99.90;;;;;;5044393;28;20212;-96
2022/07/18 04:23:30;;;;;;;2.43;1.67;;;17.10;99.90;;;;;;5044124;28;20244;-96
2022/07/18 04:26:05;;;;;;;3.57;1.60;;;17.10;99.90;;;;;;5045855;28;20213;-96
2022/07/18 04:28:38;;;;;;;1.83;1.50;;;17.10;99.90;;;;;;5046828;28;20232;-96
2022/07/18 04:31:09;;;;;;;3.47;1.50;;;17.10;99.90;;;;;;5042230;28;20270;-95
2022/07/18 04:33:41;;;;;;;2.67;1.60;;;17.10;99.90;;;;;;5047085;28;20204;-96
2022/07/18 04:36:13;;;;;;;2.37;1.40;;;17.10;99.90;;;;;;5052215;28;20212;-96
2022/07/18 04:38:44;;;;;;;2.50;1.67;;;17.10;99.90;;;;;;5049787;28;20205;-96
2022/07/18 04:41:22;;;;;;;3.90;1.67;;;17.00;99.90;;;;;;5045800;28;20209;-96
2022/07/18 04:43:54;;;;;;;2.27;1.60;;;17.00;99.90;;;;;;5043019;28;20220;-96
2022/07/18 04:46:27;;;;;;;2.87;1.70;;;17.00;99.90;;;;;;5044408;28;20221;-96
2022/07/18 04:49:00;;;;;;;3.77;1.60;;;17.00;99.90;;;;;;5046704;28;20602;-96
2022/07/18 04:51:32;;;;;;;1.80;1.43;;;17.00;99.90;;;;;;5042640;28;20213;-96
2022/07/18 04:54:12;;;;;;;3.87;1.63;;;17.00;99.90;;;;;;5043556;28;20209;-96
2022/07/18 04:56:47;;;;;;;1.70;1.53;;;17.00;99.90;;;;;;5043965;28;20220;-95
2022/07/18 05:02:15;;;;;;;1.97;1.67;;;16.90;99.90;;;;;;5609097;23;20219;-96
2022/07/18 05:04:48;;;;;;;4.53;1.77;;;16.80;99.90;;;;;;5053461;28;20240;-95
2022/07/18 05:13:55;;;;;;;3.50;1.63;;;16.80;99.90;;;;;;5063806;22;20649;-96
2022/07/18 05:16:28;;;;;;;2.53;1.47;;;16.70;99.90;;;;;;5063717;28;20251;-96
2022/07/18 05:19:00;;;;;;;3.57;1.50;;;16.70;99.90;;;;;;5067709;28;20204;-96
2022/07/18 05:21:31;;;;;;;3.37;1.70;;;16.70;99.90;;;;;;5061371;28;20258;-96
2022/07/18 05:24:03;;;;;;;2.40;1.50;;;16.60;99.90;;;;;;5064266;28;20232;-96
2022/07/18 05:26:35;;;;;;;4.27;1.73;;;16.60;99.90;;;;;;5061123;28;20258;-96
2022/07/18 05:29:12;;;;;;;2.70;1.63;;;16.60;99.90;;;;;;5063981;28;20196;-96
2022/07/18 05:31:44;;;;;;;3.03;1.70;;;16.60;99.90;;;;;;5061787;28;20208;-96
2022/07/18 05:34:16;;;;;;;2.60;1.47;;;16.60;99.90;;;;;;5062919;28;20278;-96
2022/07/18 05:36:49;;;;;;;2.67;1.60;;;16.60;99.90;;;;;;5061077;28;20834;-96
2022/07/18 05:39:21;;;;;;;2.47;1.67;;;16.60;99.90;;;;;;5063893;28;20216;-96
2022/07/18 05:41:53;;;;;;;2.17;1.40;;;16.60;99.90;;;;;;5060943;28;20240;-96
2022/07/18 05:44:28;;;;;;;3.23;1.70;;;16.60;99.90;;;;;;5060237;28;20204;-96
2022/07/18 05:49:48;;;;;;;5.77;2.10;;;16.50;99.90;;;;;;5067224;28;20258;-96
2022/07/18 05:52:23;;;;;;;3.87;1.77;;;16.50;99.90;;;;;;5063054;28;20204;-96
2022/07/18 05:54:55;;;;;;;3.17;1.50;;;16.50;99.90;;;;;;5063943;28;20211;-95
2022/07/18 05:57:26;;;;;;;3.23;1.93;;;16.50;99.90;;;;;;5062058;28;20286;-96
2022/07/18 06:03:38;;;;;;;2.83;1.80;;;16.30;99.90;;;;;;5067195;28;20283;-96
2022/07/18 06:06:20;;;;;;;3.40;1.90;;;16.30;99.90;;;;;;5069873;28;20224;-96
2022/07/18 06:16:53;;;;;;;2.73;1.60;;;16.10;99.90;;;;;;5027992;28;20296;-96
2022/07/18 06:19:28;;;;;;;2.70;1.70;;;16.10;99.90;;;;;;5022047;28;20202;-96
2022/07/18 06:22:01;;;;;;;2.23;1.60;;;16.00;99.90;;;;;;5022116;28;20260;-96
2022/07/18 06:24:33;;;;;;;2.73;1.77;;;16.00;99.90;;;;;;5023114;28;20206;-96
2022/07/18 06:27:06;;;;;;;3.40;1.40;;;16.00;99.90;;;;;;5022427;28;20198;-95
2022/07/18 06:29:39;;;;;;;1.70;1.50;;;15.90;99.90;;;;;;5022630;28;20268;-95
2022/07/18 06:32:10;;;;;;;3.53;1.70;;;15.80;99.90;;;;;;5022344;28;20211;-96
2022/07/18 06:34:46;;;;;;;3.00;1.60;;;15.80;99.90;;;;;;5025818;28;20217;-96
2022/07/18 06:37:19;;;;;;;4.20;1.80;;;15.70;99.90;;;;;;5023257;28;20278;-96
2022/07/18 06:39:52;;;;;;;2.90;1.50;;;15.70;99.90;;;;;;5037776;28;20196;-96
2022/07/18 06:42:24;;;;;;;2.03;1.40;;;15.70;99.90;;;;;;5037043;28;20216;-96
2022/07/18 06:44:55;;;;;;;1.93;1.67;;;15.70;99.90;;;;;;5037961;28;20197;-96
2022/07/18 06:47:45;;;;;;;3.50;1.70;;;15.80;99.90;;;;;;5038151;28;20193;-95
2022/07/18 06:50:41;;;;;;;3.70;1.57;;;15.80;99.90;;;;;;5027639;28;20611;-95
2022/07/18 06:53:28;;;;;;;1.83;1.57;;;15.70;99.90;;;;;;5027531;28;20193;-95
2022/07/18 06:56:05;;;;;;;3.87;1.77;;;15.70;99.90;;;;;;5021524;28;20209;-96
2022/07/18 06:58:37;;;;;;;3.57;1.60;;;15.70;99.90;;;;;;5019112;28;20313;-95
2022/07/18 07:01:10;;;;;;;1.80;1.43;;;15.70;99.90;;;;;;5020605;28;20559;-95
2022/07/18 07:03:43;;;;;;;3.83;1.80;;;15.70;99.90;;;;;;5019015;28;20666;-95
2022/07/18 07:06:29;;;;;;;4.00;1.70;;;15.70;99.90;;;;;;5021381;28;20209;-96
2022/07/18 07:09:01;;;;;;;2.97;1.40;;;15.70;99.90;;;;;;5021999;28;20197;-96
2022/07/18 07:11:33;;;;;;;2.57;1.60;;;15.60;99.90;;;;;;5020461;28;20642;-96
2022/07/18 07:14:09;;;;;;;4.97;1.90;;;15.60;99.90;;;;;;5024822;28;20221;-96
2022/07/18 07:16:42;;;;;;;1.87;1.50;;;15.50;99.90;;;;;;5020522;28;20228;-96
2022/07/18 07:19:16;;;;;;;3.40;1.83;;;15.30;99.90;;;;;;5019583;28;20238;-95
2022/07/18 07:21:53;;;;;;;2.10;1.73;;;15.20;99.90;;;;;;5018990;28;20217;-96
2022/07/18 07:24:25;;;;;;;3.73;1.70;;;15.20;99.90;;;;;;5023990;28;20213;-94
2022/07/18 07:26:57;;;;;;;3.80;2.00;;;15.10;99.90;;;;;;5019491;28;20214;-96
2022/07/18 07:29:29;;;;;;;3.17;1.37;;;15.00;99.90;;;;;;5018135;28;20233;-96
2022/07/18 07:32:02;;;;;;;4.40;1.70;;;15.00;99.90;;;;;;5017130;28;20205;-96
2022/07/18 07:34:36;;;;;;;4.33;1.63;;;15.00;99.90;;;;;;5018467;28;20213;-96
2022/07/18 07:37:11;;;;;;;2.73;1.80;;;15.00;99.90;;;;;;5016853;28;20267;-95
2022/07/18 07:39:47;;;;;;;2.77;1.73;;;15.00;99.90;;;;;;5019278;28;20216;-95
2022/07/18 07:42:18;;;;;;;4.33;1.60;;;15.00;99.90;;;;;;5017122;28;20222;-95
2022/07/18 07:44:50;;;;;;;3.40;2.53;;;15.00;99.90;;;;;;5018173;28;20236;-96
2022/07/18 07:47:21;;;;;;;6.50;1.80;;;15.10;99.90;;;;;;5018135;28;20233;-96
2022/07/18 07:49:54;;;;;;;3.03;1.67;;;15.10;99.90;;;;;;5019254;28;20213;-96
2022/07/18 07:52:32;;;;;;;2.17;1.50;;;15.10;99.90;;;;;;5018171;28;20268;-96
2022/07/18 07:55:04;;;;;;;3.17;1.77;;;15.10;99.90;;;;;;5018306;28;20224;-96
2022/07/18 07:57:37;;;;;;;4.13;1.77;;;15.20;99.90;;;;;;5019239;28;20233;-96
2022/07/18 08:00:10;;;;;;;3.03;1.50;;;15.20;99.90;;;;;;5018939;28;20287;-96
2022/07/18 08:02:56;;;;;;;2.40;1.63;;;15.10;99.90;;;;;;5018820;28;20233;-96
2022/07/18 08:05:30;;;;;;;4.77;1.90;;;15.10;99.90;;;;;;5017892;28;20673;-96
2022/07/18 08:08:07;;;;;;;2.47;1.60;;;15.00;99.90;;;;;;5017992;28;20225;-96
2022/07/18 08:10:40;;;;;;;3.47;1.70;;;15.00;99.90;;;;;;5018045;28;20254;-95
2022/07/18 08:19:04;;;;;;;4.10;1.87;;;15.00;99.90;;;;;;5516789;23;20233;-96
2022/07/18 08:21:35;;;;;;;3.93;2.13;;;15.10;99.90;;;;;;5016669;28;20217;-96
2022/07/18 08:24:10;;;;;;;4.47;1.70;;;15.00;99.90;;;;;;5019338;28;20221;-96
2022/07/18 08:26:41;;;;;;;4.37;1.90;;;15.00;99.90;;;;;;5017359;28;20223;-96
2022/07/18 08:32:13;;;;;;;2.77;1.80;;;15.00;99.90;;;;;;5665192;22;20218;-96
2022/07/18 08:34:46;;;;;;;5.23;1.60;;;15.10;99.90;;;;;;4981858;28;20233;-96
2022/07/18 08:37:27;;;;;;;4.53;1.93;;;15.10;99.90;;;;;;4979745;28;20685;-96
2022/07/18 08:40:01;;;;;;;4.73;1.70;;;15.10;99.90;;;;;;4979571;28;20238;-96
2022/07/18 08:42:35;;;;;;;3.57;1.87;;;15.00;99.90;;;;;;4979810;28;20628;-96
2022/07/18 08:45:30;;;;;;;4.30;1.70;;;14.90;99.90;;;;;;4980258;28;20243;-95
2022/07/18 08:48:02;;;;;;;3.17;2.17;;;14.80;99.90;;;;;;4980680;28;20211;-96
2022/07/18 08:50:35;;;;;;;3.90;1.77;;;14.90;99.90;;;;;;4980117;28;20219;-96
2022/07/18 08:53:07;;;;;;;3.93;1.90;;;15.00;99.90;;;;;;4979179;28;20215;-96
2022/07/18 08:55:42;;;;;;;4.77;2.07;;;15.00;99.90;;;;;;4978989;28;20215;-96
2022/07/18 08:58:17;;;;;;;5.93;2.03;;;15.00;99.90;;;;;;4979165;28;20334;-96
2022/07/18 09:01:09;;;;;;;6.90;2.33;;;15.00;99.90;;;;;;4983998;28;20266;-96
2022/07/18 09:06:25;;;;;;;3.00;1.67;;;15.00;99.90;;;;;;4983476;28;20223;-96
2022/07/18 09:18:57;;;;;;;2.73;1.90;;;15.00;99.90;;;;;;4997365;28;20214;-96
2022/07/18 09:32:40;;;;;;;5.23;2.13;;;14.90;99.90;;;;;;4994114;28;20206;-96
2022/07/18 09:35:14;;;;;;;3.13;1.80;;;14.90;99.90;;;;;;4983391;28;20218;-96
2022/07/18 09:37:58;;;;;;;3.77;1.90;;;14.80;99.90;;;;;;4984767;28;20223;-96
2022/07/18 09:40:32;;;;;;;4.77;1.90;;;14.80;99.90;;;;;;4980470;28;20223;-96
2022/07/18 09:43:06;;;;;;;6.13;2.33;;;14.80;99.90;;;;;;4962024;29;20609;-96
2022/07/18 09:45:39;;;;;;;2.57;1.90;;;14.80;99.90;;;;;;4961026;29;20266;-96
2022/07/18 09:48:18;;;;;;;3.00;1.90;;;14.80;99.90;;;;;;4962664;29;20207;-96
2022/07/18 09:50:55;;;;;;;6.03;2.43;;;14.80;99.90;;;;;;4960671;29;20211;-96
2022/07/18 09:53:27;;;;;;;2.83;1.90;;;14.80;99.90;;;;;;4960638;29;20215;-96
2022/07/18 09:56:04;;;;;;;5.67;2.20;;;14.80;99.90;;;;;;4961028;29;20271;-95
2022/07/18 09:58:39;;;;;;;5.77;2.00;;;14.80;99.90;;;;;;4961348;29;20246;-94
2022/07/18 10:01:11;;;;;;;3.53;2.23;;;14.60;99.90;;;;;;4960498;29;20278;-94
2022/07/18 10:03:45;;;;;;;4.57;2.10;;;14.60;99.90;;;;;;4965118;28;20244;-96
2022/07/18 10:06:18;;;;;;;6.67;2.30;;;14.60;99.90;;;;;;4961498;29;20275;-96
2022/07/18 10:08:49;;;;;;;5.33;2.37;;;14.50;99.90;;;;;;4961705;29;20231;-96
2022/07/18 10:11:21;;;;;;;2.97;1.70;;;14.50;99.90;;;;;;4972059;28;20199;-96
2022/07/18 10:13:58;;;;;;;4.97;2.80;;;14.60;99.90;;;;;;4985690;28;20277;-96
2022/07/18 10:16:30;;;;;;;4.00;2.00;;;14.60;99.90;;;;;;4984649;28;20214;-95
2022/07/18 10:19:03;;;;;;;3.80;2.10;;;14.70;99.90;;;;;;4980862;28;20321;-95
2022/07/18 10:21:35;;;;;;;3.50;2.07;;;14.70;99.90;;;;;;4979189;28;20732;-96
2022/07/18 10:24:08;;;;;;;5.03;2.20;;;14.70;99.90;;;;;;4980637;28;20626;-96
2022/07/18 10:26:40;;;;;;;5.57;2.03;;;14.60;99.90;;;;;;4980292;28;20211;-96
2022/07/18 10:29:18;;;;;;;6.13;2.23;;;14.60;99.90;;;;;;4980218;28;20286;-95
2022/07/18 10:32:07;;;;;;;4.80;1.97;;;14.60;99.90;;;;;;4979372;28;20312;-96
2022/07/18 10:34:43;;;;;;;2.63;1.70;;;14.60;99.90;;;;;;4979725;28;20321;-95
2022/07/18 10:37:15;;;;;;;4.30;1.97;;;14.60;99.90;;;;;;4980458;28;20206;-95
2022/07/18 10:39:47;;;;;;;4.93;2.20;;;14.60;99.90;;;;;;4979923;28;20560;-96
2022/07/18 10:42:24;;;;;;;7.60;2.00;;;14.60;99.90;;;;;;4979299;28;20251;-95
2022/07/18 10:44:55;;;;;;;2.77;1.80;;;14.50;99.90;;;;;;4979688;28;20214;-95
2022/07/18 10:47:31;;;;;;;3.73;2.10;;;14.60;99.90;;;;;;4982307;28;20203;-95
2022/07/18 10:50:10;;;;;;;3.53;1.90;;;14.60;99.90;;;;;;4983161;28;20187;-95
2022/07/18 10:53:19;;;;;;;3.90;1.90;;;14.70;99.90;;;;;;4980067;28;20207;-96
2022/07/18 10:55:50;;;;;;;2.97;1.73;;;14.80;99.90;;;;;;4979753;28;20240;-96
2022/07/18 10:58:24;;;;;;;5.50;2.30;;;14.60;99.90;;;;;;4980097;28;20215;-95
2022/07/18 11:01:07;;;;;;;4.43;1.80;;;14.70;99.90;;;;;;4979360;28;20234;-95
2022/07/18 11:06:26;;;;;;;3.77;2.47;;;14.50;99.90;;;;;;4980229;28;20215;-96
2022/07/18 11:09:38;;;;;;;4.70;2.13;;;14.50;99.90;;;;;;4979157;28;20738;-96
2022/07/18 11:12:32;;;;;;;3.93;2.73;;;14.50;99.90;;;;;;4978778;28;20297;-96
2022/07/18 11:15:14;;;;;;;4.60;2.70;;;14.50;99.90;;;;;;4985074;28;20207;-96
2022/07/18 11:18:01;;;;;;;5.87;2.93;;;14.30;99.90;;;;;;4962855;29;20633;-95
2022/07/18 11:20:44;;;;;;;5.50;3.00;;;14.20;99.90;;;;;;4961925;28;20302;-95
2022/07/18 11:23:21;;;;;;;8.73;3.07;;;14.10;99.90;;;;;;4962339;28;20207;-94
2022/07/18 11:25:54;;;;;;;6.50;3.33;;;13.90;99.90;;;;;;4964716;29;20215;-94
2022/07/18 11:28:29;;;;;;;4.90;3.00;;;13.80;99.90;;;;;;4959990;28;20227;-94
2022/07/18 11:31:05;;;;;;;7.80;3.33;;;13.70;99.90;;;;;;4959355;29;20223;-95
2022/07/18 11:33:39;;;;;;;4.50;3.20;;;13.80;99.90;;;;;;4960486;28;20219;-94
2022/07/18 11:36:12;;;;;;;6.93;3.33;;;13.80;99.90;;;;;;4959988;29;20212;-95
2022/07/18 11:38:51;;;;;;;5.27;3.50;;;13.90;99.90;;;;;;4971119;28;20233;-95
2022/07/18 11:41:23;;;;;;;7.23;3.90;;;14.00;99.90;;;;;;4978064;28;20290;-95
2022/07/18 11:43:57;;;;;;;8.47;3.40;;;14.00;99.90;;;;;;4979559;28;20230;-95
2022/07/18 11:46:29;;;;;;;6.07;3.00;;;14.00;99.90;;;;;;4979586;28;20630;-95
2022/07/18 11:49:03;;;;;;;5.73;2.90;;;13.90;99.90;;;;;;4979225;28;20207;-94
2022/07/18 11:51:38;;;;;;;6.80;2.90;;;13.70;99.90;;;;;;4979018;28;20629;-94
2022/07/18 11:54:12;;;;;;;8.53;3.10;;;13.60;99.90;;;;;;4983251;28;20210;-95
2022/07/18 11:56:49;;;;;;;3.90;2.87;;;13.60;99.90;;;;;;4986633;28;20230;-95
2022/07/18 11:59:21;;;;;;;3.77;2.50;;;13.50;99.90;;;;;;4997431;28;20198;-93
2022/07/18 12:01:55;;;;;;;7.83;3.30;;;13.30;99.90;;;;;;4996633;28;20214;-95
2022/07/18 12:04:27;;;;;;;6.97;3.13;;;13.30;99.90;;;;;;4997828;28;20299;-93
2022/07/18 12:07:22;;;;;;;8.97;3.43;;;13.30;99.90;;;;;;4997681;28;20262;-94
2022/07/18 12:09:55;;;;;;;9.07;2.97;;;13.30;99.90;;;;;;4978816;28;20207;-94
2022/07/18 12:12:27;;;;;;;8.80;3.07;;;13.20;99.90;;;;;;4977823;28;20218;-94
2022/07/18 12:15:00;;;;;;;6.33;3.40;;;13.30;99.90;;;;;;4979276;28;20207;-95
2022/07/18 12:17:32;;;;;;;7.37;3.03;;;13.20;99.90;;;;;;4981744;28;20238;-95
2022/07/18 12:20:15;;;;;;;8.23;3.53;;;13.20;99.90;;;;;;4977898;28;20244;-96
2022/07/18 12:23:07;;;;;;;4.87;2.93;;;13.20;99.90;;;;;;4976826;28;20207;-95
2022/07/18 12:25:42;;;;;;;5.10;2.87;;;13.20;99.90;;;;;;4978569;28;20242;-94
2022/07/18 12:28:16;;;;;;;10.17;3.87;;;13.20;99.90;;;;;;4978383;28;20244;-94
2022/07/18 12:30:48;;;;;;;10.03;3.93;;;13.20;99.90;;;;;;4981482;28;20503;-94
2022/07/18 12:33:22;;;;;;;5.43;3.63;;;13.20;99.90;;;;;;4978609;28;20265;-95
2022/07/18 12:35:59;;;;;;;6.60;3.63;;;13.10;99.90;;;;;;4983689;28;20218;-94
2022/07/18 12:38:31;;;;;;;5.63;3.60;;;13.20;99.90;;;;;;4984855;28;20222;-94
2022/07/18 12:41:06;;;;;;;8.67;3.77;;;13.20;99.90;;;;;;4982379;28;20318;-94
2022/07/18 12:43:39;;;;;;;6.30;3.73;;;13.20;99.90;;;;;;4983858;28;20221;-94
2022/07/18 12:46:10;;;;;;;7.17;3.30;;;13.30;99.90;;;;;;4983615;28;20219;-94
2022/07/18 12:48:42;;;;;;;6.50;3.43;;;13.30;99.90;;;;;;4984964;28;20238;-95
2022/07/18 12:51:14;;;;;;;6.23;3.47;;;13.30;99.90;;;;;;4981795;28;20215;-94
2022/07/18 12:53:46;;;;;;;7.87;4.47;;;13.30;99.90;;;;;;4989500;28;20242;-93
2022/07/18 12:56:19;;;;;;;4.20;3.50;;;13.30;99.90;;;;;;4984020;28;20207;-93
2022/07/18 12:58:51;;;;;;;5.80;2.90;;;13.20;99.90;;;;;;4981023;28;20759;-94
2022/07/18 13:01:28;;;;;;;5.50;3.10;;;13.20;99.90;;;;;;4980781;28;20250;-94
2022/07/18 13:04:00;;;;;;;6.40;3.43;;;13.20;99.90;;;;;;4981490;28;20558;-94
2022/07/18 13:06:32;;;;;;;7.37;3.20;;;13.10;99.90;;;;;;4981343;28;20679;-95
2022/07/18 13:09:03;;;;;;;5.23;3.33;;;13.00;99.90;;;;;;4983733;28;20258;-94
2022/07/18 13:11:37;;;;;;;4.23;2.83;;;13.10;99.90;;;;;;4981017;28;20358;-94
2022/07/18 13:14:08;;;;;;;6.40;3.40;;;13.00;99.90;;;;;;4981486;28;20752;-94
2022/07/18 13:16:39;;;;;;;7.40;3.30;;;13.00;99.90;;;;;;4980249;28;20649;-94
2022/07/18 13:19:11;;;;;;;6.30;3.70;;;13.10;99.90;;;;;;4980615;28;20215;-94
2022/07/18 13:21:44;;;;;;;5.67;3.40;;;13.10;99.90;;;;;;4979813;28;20238;-94
2022/07/18 13:24:16;;;;;;;7.20;3.77;;;13.00;99.90;;;;;;4980766;28;20818;-94
2022/07/18 13:27:06;;;;;;;6.03;3.57;;;13.10;99.90;;;;;;4980658;28;20222;-94
2022/07/18 13:29:37;;;;;;;7.53;3.63;;;13.00;99.90;;;;;;4979837;28;20277;-94
2022/07/18 13:32:09;;;;;;;6.50;3.40;;;13.00;99.90;;;;;;4979744;28;20230;-94
2022/07/18 13:34:40;;;;;;;7.80;3.33;;;13.10;99.90;;;;;;4981217;28;20211;-93
2022/07/18 13:37:10;;;;;;;7.47;3.50;;;13.00;99.90;;;;;;4980545;28;20223;-94
2022/07/18 13:39:42;;;;;;;7.47;3.50;;;13.10;99.90;;;;;;4980057;28;20592;-94
2022/07/18 13:42:17;;;;;;;6.13;3.13;;;13.10;99.90;;;;;;4979675;28;20261;-93
2022/07/18 13:44:48;;;;;;;5.27;2.87;;;13.00;99.90;;;;;;4980531;28;20218;-95
2022/07/18 13:47:19;;;;;;;6.10;3.30;;;13.00;99.90;;;;;;4980119;28;20273;-93
2022/07/18 13:49:51;;;;;;;4.80;3.30;;;12.90;99.90;;;;;;4980018;28;20211;-95
2022/07/18 13:52:22;;;;;;;9.13;3.27;;;12.80;99.90;;;;;;4979586;28;20676;-94
2022/07/18 13:54:54;;;;;;;7.23;3.30;;;12.90;99.90;;;;;;4979666;28;20277;-94
2022/07/18 13:57:28;;;;;;;6.10;3.00;;;13.10;99.90;;;;;;4980478;28;20218;-94
2022/07/18 13:59:59;;;;;;;5.33;3.13;;;13.10;99.90;;;;;;4980226;28;20238;-93
2022/07/18 14:02:33;;;;;;;6.53;3.13;;;13.10;99.90;;;;;;4979432;28;20330;-95
2022/07/18 14:05:05;;;;;;;4.53;2.70;;;13.20;99.90;;;;;;4979926;28;20301;-94
2022/07/18 14:07:45;;;;;;;4.20;3.03;;;13.10;99.90;;;;;;4980157;28;20226;-94
2022/07/18 14:10:17;;;;;;;5.63;3.27;;;13.00;99.90;;;;;;4982122;28;20211;-94
2022/07/18 14:12:53;;;;;;;6.70;3.03;;;13.10;99.90;;;;;;4980819;28;20289;-94
2022/07/18 14:15:26;;;;;;;4.97;2.80;;;13.10;99.90;;;;;;4979174;28;20242;-94
2022/07/18 14:17:58;;;;;;;5.53;3.03;;;13.10;99.90;;;;;;4980724;28;20203;-94
2022/07/18 14:20:29;;;;;;;5.13;3.13;;;13.10;99.90;;;;;;4981308;28;20204;-94
2022/07/18 14:23:00;;;;;;;4.90;3.00;;;13.10;99.90;;;;;;4980247;28;20238;-95
2022/07/18 14:25:33;;;;;;;6.63;3.53;;;13.10;99.90;;;;;;4983493;28;20238;-95
2022/07/18 14:28:06;;;;;;;4.50;3.00;;;13.20;99.90;;;;;;4981208;28;20304;-94
2022/07/18 14:30:38;;;;;;;7.10;3.37;;;13.10;99.90;;;;;;4981721;28;20215;-94
2022/07/18 14:33:10;;;;;;;6.10;3.00;;;13.20;99.90;;;;;;4980603;28;20285;-94